Time;durP1;ratioP1;P1;durP2;ratioP2;P2;SDS_P1;SDS_P2;PMS_P1;PMS_P2;Temp;Humidity;BMP_temperature;BMP_pressure;BME280_temperature;BME280_humidity;BME280_pressure;Samples;Min_cycle;Max_cycle;Signal;HPM_P1;HPM_P2
2021/11/09 13:14:45;;;;;;;4.22;3.17;;;10.70;99.90;;;;;;5090927;27;20533;-77
2021/11/09 13:17:25;;;;;;;4.72;3.17;;;10.80;99.90;;;;;;5089559;28;20192;-77
2021/11/09 13:20:03;;;;;;;4.70;3.60;;;10.90;99.90;;;;;;5090805;28;20195;-77
2021/11/09 13:22:29;;;;;;;6.65;2.75;;;11.00;99.90;;;;;;5090774;28;20164;-78
2021/11/09 13:24:59;;;;;;;9.55;5.05;;;11.20;99.90;;;;;;5089398;28;20530;-78
2021/11/09 13:27:47;;;;;;;3.28;2.97;;;11.20;99.90;;;;;;5089469;28;20167;-77
2021/11/09 13:30:17;;;;;;;6.55;2.50;;;11.40;99.90;;;;;;5089470;28;20240;-78
2021/11/09 13:32:44;;;;;;;6.75;2.65;;;11.60;99.90;;;;;;5090436;28;20187;-77
2021/11/09 13:35:23;;;;;;;4.63;2.53;;;11.70;99.90;;;;;;5089278;28;20626;-78
2021/11/09 13:37:50;;;;;;;4.22;2.85;;;11.60;99.90;;;;;;5090530;28;20510;-78
2021/11/09 13:40:18;;;;;;;7.75;2.90;;;11.90;99.90;;;;;;5090485;28;20191;-78
2021/11/09 13:42:55;;;;;;;3.63;2.80;;;12.00;99.90;;;;;;5090401;28;20179;-78
2021/11/09 13:45:21;;;;;;;7.60;2.90;;;12.00;99.90;;;;;;5090284;28;20172;-78
2021/11/09 13:47:46;;;;;;;6.60;2.85;;;12.00;99.90;;;;;;5089029;28;20525;-78
2021/11/09 13:50:13;;;;;;;8.57;2.95;;;12.10;99.90;;;;;;5089088;28;20179;-78
2021/11/09 13:52:44;;;;;;;4.50;2.78;;;12.20;99.90;;;;;;5090151;28;20203;-78
2021/11/09 13:55:11;;;;;;;5.07;2.38;;;12.30;99.90;;;;;;5090056;28;20182;-78
2021/11/09 13:57:36;;;;;;;4.53;2.88;;;12.30;99.90;;;;;;5090085;28;20225;-78
2021/11/09 14:00:27;;;;;;;6.88;3.20;;;12.50;99.90;;;;;;5090205;28;20545;-75
2021/11/09 14:03:05;;;;;;;4.75;3.00;;;12.30;99.90;;;;;;5090108;28;20172;-77
2021/11/09 14:08:30;;;;;;;3.60;3.08;;;12.40;99.90;;;;;;5090012;28;20171;-77
2021/11/09 14:18:56;;;;;;;6.95;4.18;;;12.80;99.90;;;;;;5089719;28;20620;-78
2021/11/09 14:21:42;;;;;;;6.45;3.40;;;12.60;99.90;;;;;;5089674;28;20643;-77
2021/11/09 14:24:25;;;;;;;12.02;5.35;;;12.70;99.90;;;;;;5085997;28;20175;-78
2021/11/09 14:27:11;;;;;;;12.52;5.22;;;12.50;99.90;;;;;;5076002;28;20687;-77
2021/11/09 14:29:39;;;;;;;7.40;5.38;;;12.90;99.90;;;;;;5075975;28;20205;-77
2021/11/09 14:32:17;;;;;;;7.20;4.40;;;12.50;99.90;;;;;;5075936;28;20175;-78
2021/11/09 14:35:00;;;;;;;9.50;4.75;;;12.50;99.90;;;;;;5074711;28;20544;-79
2021/11/09 14:37:33;;;;;;;4.70;4.22;;;12.40;99.90;;;;;;5075838;28;20192;-78
2021/11/09 14:40:08;;;;;;;6.20;3.78;;;12.20;99.90;;;;;;5075812;28;20199;-78
2021/11/09 14:45:35;;;;;;;11.27;4.45;;;12.00;99.90;;;;;;5075765;28;20168;-78
2021/11/09 14:48:26;;;;;;;3.58;3.35;;;12.10;99.90;;;;;;5074479;28;20175;-77
2021/11/09 14:53:43;;;;;;;6.10;2.63;;;11.90;99.90;;;;;;5075538;28;20204;-78
2021/11/09 14:56:13;;;;;;;8.57;2.90;;;11.70;99.90;;;;;;5075522;28;20164;-77
2021/11/09 14:58:52;;;;;;;5.72;2.90;;;11.60;99.90;;;;;;5075563;28;20175;-78
2021/11/09 15:01:46;;;;;;;5.20;3.10;;;11.60;99.90;;;;;;5074152;28;20255;-77
2021/11/09 15:04:40;;;;;;;5.18;3.45;;;11.50;99.90;;;;;;5075227;28;20180;-77
2021/11/09 15:27:06;;;;;;;8.55;4.63;;;11.20;99.90;;;;;;5074988;28;20183;-78
2021/11/09 15:29:37;;;;;;;6.78;4.50;;;11.00;99.90;;;;;;5075502;28;20172;-78
2021/11/09 15:32:11;;;;;;;11.65;6.97;;;11.00;99.90;;;;;;5073801;28;20172;-77
2021/11/09 15:37:41;;;;;;;4.22;2.85;;;10.80;99.90;;;;;;5073788;28;20160;-77
2021/11/09 15:39:59;;;;;;;5.40;3.58;;;10.70;99.90;;;;;;5075282;28;20192;-77
2021/11/09 15:42:27;;;;;;;4.10;2.85;;;10.50;99.90;;;;;;5073332;28;20176;-77
